sensor_id;sensor_type;location;lat;lon;timestamp;P1;durP1;ratioP1;P2;durP2;ratioP2
75261;SDS011;63859;51.064;4.580;2022-11-24T00:01:58;18.23;;;3.13;;
75261;SDS011;63859;51.064;4.580;2022-11-24T00:04:24;15.87;;;3.23;;
75261;SDS011;63859;51.064;4.580;2022-11-24T00:06:50;22.47;;;3.53;;
75261;SDS011;63859;51.064;4.580;2022-11-24T00:09:17;16.27;;;3.27;;
75261;SDS011;63859;51.064;4.580;2022-11-24T00:11:43;16.90;;;3.57;;
75261;SDS011;63859;51.064;4.580;2022-11-24T00:14:08;20.33;;;3.47;;
75261;SDS011;63859;51.064;4.580;2022-11-24T00:16:35;21.17;;;3.73;;
75261;SDS011;63859;51.064;4.580;2022-11-24T00:19:03;22.40;;;3.90;;
75261;SDS011;63859;51.064;4.580;2022-11-24T00:21:31;17.47;;;3.73;;
75261;SDS011;63859;51.064;4.580;2022-11-24T00:23:57;15.90;;;3.47;;
75261;SDS011;63859;51.064;4.580;2022-11-24T00:26:24;17.77;;;3.70;;
75261;SDS011;63859;51.064;4.580;2022-11-24T00:28:52;13.93;;;3.47;;
75261;SDS011;63859;51.064;4.580;2022-11-24T00:31:29;17.10;;;4.30;;
75261;SDS011;63859;51.064;4.580;2022-11-24T00:34:00;18.47;;;3.67;;
75261;SDS011;63859;51.064;4.580;2022-11-24T00:36:29;17.87;;;3.20;;
75261;SDS011;63859;51.064;4.580;2022-11-24T00:38:56;18.30;;;3.77;;
75261;SDS011;63859;51.064;4.580;2022-11-24T00:41:24;18.90;;;4.03;;
75261;SDS011;63859;51.064;4.580;2022-11-24T00:43:50;29.20;;;4.70;;
75261;SDS011;63859;51.064;4.580;2022-11-24T00:46:16;25.60;;;3.87;;
75261;SDS011;63859;51.064;4.580;2022-11-24T00:48:42;21.83;;;3.73;;
75261;SDS011;63859;51.064;4.580;2022-11-24T00:51:09;24.57;;;4.10;;
75261;SDS011;63859;51.064;4.580;2022-11-24T00:53:36;20.47;;;3.60;;
75261;SDS011;63859;51.064;4.580;2022-11-24T00:56:02;24.77;;;4.03;;
75261;SDS011;63859;51.064;4.580;2022-11-24T00:58:28;25.03;;;4.23;;
75261;SDS011;63859;51.064;4.580;2022-11-24T01:00:54;25.93;;;4.90;;
75261;SDS011;63859;51.064;4.580;2022-11-24T01:03:20;18.83;;;3.60;;
75261;SDS011;63859;51.064;4.580;2022-11-24T01:05:46;28.40;;;4.53;;
75261;SDS011;63859;51.064;4.580;2022-11-24T01:08:13;26.63;;;4.70;;
75261;SDS011;63859;51.064;4.580;2022-11-24T01:10:39;18.17;;;4.27;;
75261;SDS011;63859;51.064;4.580;2022-11-24T01:13:04;27.27;;;4.90;;
75261;SDS011;63859;51.064;4.580;2022-11-24T01:15:30;29.57;;;4.73;;
75261;SDS011;63859;51.064;4.580;2022-11-24T01:17:58;20.97;;;3.83;;
75261;SDS011;63859;51.064;4.580;2022-11-24T01:20:24;18.50;;;4.00;;
75261;SDS011;63859;51.064;4.580;2022-11-24T01:22:49;23.63;;;4.43;;
75261;SDS011;63859;51.064;4.580;2022-11-24T01:25:15;23.73;;;4.30;;
75261;SDS011;63859;51.064;4.580;2022-11-24T01:27:40;25.20;;;4.97;;
75261;SDS011;63859;51.064;4.580;2022-11-24T01:30:06;26.63;;;4.40;;
75261;SDS011;63859;51.064;4.580;2022-11-24T01:32:33;23.20;;;4.60;;
75261;SDS011;63859;51.064;4.580;2022-11-24T01:35:00;29.03;;;4.47;;
75261;SDS011;63859;51.064;4.580;2022-11-24T01:37:26;20.83;;;4.17;;
75261;SDS011;63859;51.064;4.580;2022-11-24T01:39:52;29.50;;;4.53;;
75261;SDS011;63859;51.064;4.580;2022-11-24T01:42:17;25.33;;;4.37;;
75261;SDS011;63859;51.064;4.580;2022-11-24T01:44:43;25.23;;;4.23;;
75261;SDS011;63859;51.064;4.580;2022-11-24T01:49:53;27.20;;;4.30;;
75261;SDS011;63859;51.064;4.580;2022-11-24T01:52:24;25.80;;;4.43;;
75261;SDS011;63859;51.064;4.580;2022-11-24T01:54:59;24.13;;;4.60;;
75261;SDS011;63859;51.064;4.580;2022-11-24T01:57:31;23.00;;;4.40;;
75261;SDS011;63859;51.064;4.580;2022-11-24T02:00:13;27.00;;;4.80;;
75261;SDS011;63859;51.064;4.580;2022-11-24T02:02:40;27.90;;;5.30;;
75261;SDS011;63859;51.064;4.580;2022-11-24T02:05:08;29.13;;;5.80;;
75261;SDS011;63859;51.064;4.580;2022-11-24T02:07:40;23.77;;;4.73;;
75261;SDS011;63859;51.064;4.580;2022-11-24T02:10:07;26.47;;;4.53;;
75261;SDS011;63859;51.064;4.580;2022-11-24T02:12:36;19.30;;;4.17;;
75261;SDS011;63859;51.064;4.580;2022-11-24T02:15:05;32.17;;;5.37;;
75261;SDS011;63859;51.064;4.580;2022-11-24T02:17:31;26.83;;;5.57;;
75261;SDS011;63859;51.064;4.580;2022-11-24T02:19:57;29.50;;;5.83;;
75261;SDS011;63859;51.064;4.580;2022-11-24T02:28:28;21.53;;;4.50;;
75261;SDS011;63859;51.064;4.580;2022-11-24T02:30:55;25.80;;;4.80;;
75261;SDS011;63859;51.064;4.580;2022-11-24T02:33:22;24.93;;;4.00;;
75261;SDS011;63859;51.064;4.580;2022-11-24T02:35:49;32.77;;;4.77;;
75261;SDS011;63859;51.064;4.580;2022-11-24T02:38:15;27.73;;;5.27;;
75261;SDS011;63859;51.064;4.580;2022-11-24T02:40:42;24.53;;;4.73;;
75261;SDS011;63859;51.064;4.580;2022-11-24T02:43:12;22.30;;;4.77;;
75261;SDS011;63859;51.064;4.580;2022-11-24T02:45:40;27.40;;;4.70;;
75261;SDS011;63859;51.064;4.580;2022-11-24T02:48:06;21.23;;;3.97;;
75261;SDS011;63859;51.064;4.580;2022-11-24T02:50:32;20.37;;;4.00;;
75261;SDS011;63859;51.064;4.580;2022-11-24T02:52:57;25.00;;;4.43;;
75261;SDS011;63859;51.064;4.580;2022-11-24T02:55:23;31.03;;;5.03;;
75261;SDS011;63859;51.064;4.580;2022-11-24T02:57:49;22.73;;;5.13;;
75261;SDS011;63859;51.064;4.580;2022-11-24T03:00:14;25.00;;;4.27;;
75261;SDS011;63859;51.064;4.580;2022-11-24T03:02:40;28.80;;;4.17;;
75261;SDS011;63859;51.064;4.580;2022-11-24T03:05:06;26.97;;;4.50;;
75261;SDS011;63859;51.064;4.580;2022-11-24T03:07:32;26.13;;;4.00;;
75261;SDS011;63859;51.064;4.580;2022-11-24T03:09:58;25.87;;;4.63;;
75261;SDS011;63859;51.064;4.580;2022-11-24T03:12:23;24.63;;;4.63;;
75261;SDS011;63859;51.064;4.580;2022-11-24T03:14:49;24.60;;;4.13;;
75261;SDS011;63859;51.064;4.580;2022-11-24T03:17:15;18.00;;;4.27;;
75261;SDS011;63859;51.064;4.580;2022-11-24T03:19:40;34.40;;;4.73;;
75261;SDS011;63859;51.064;4.580;2022-11-24T03:22:06;22.17;;;4.60;;
75261;SDS011;63859;51.064;4.580;2022-11-24T03:24:31;26.23;;;4.57;;
75261;SDS011;63859;51.064;4.580;2022-11-24T03:26:57;20.53;;;4.13;;
75261;SDS011;63859;51.064;4.580;2022-11-24T03:29:22;15.97;;;3.50;;
75261;SDS011;63859;51.064;4.580;2022-11-24T03:31:48;19.37;;;3.40;;
75261;SDS011;63859;51.064;4.580;2022-11-24T03:34:13;19.80;;;3.67;;
75261;SDS011;63859;51.064;4.580;2022-11-24T03:36:39;21.87;;;4.00;;
75261;SDS011;63859;51.064;4.580;2022-11-24T03:39:05;26.40;;;4.23;;
75261;SDS011;63859;51.064;4.580;2022-11-24T03:41:31;14.20;;;2.93;;
75261;SDS011;63859;51.064;4.580;2022-11-24T03:43:56;16.93;;;3.70;;
75261;SDS011;63859;51.064;4.580;2022-11-24T03:46:22;13.93;;;3.70;;
75261;SDS011;63859;51.064;4.580;2022-11-24T03:48:47;24.20;;;3.63;;
75261;SDS011;63859;51.064;4.580;2022-11-24T03:51:13;17.47;;;3.80;;
75261;SDS011;63859;51.064;4.580;2022-11-24T03:53:39;25.33;;;3.57;;
75261;SDS011;63859;51.064;4.580;2022-11-24T03:56:05;26.47;;;3.67;;
75261;SDS011;63859;51.064;4.580;2022-11-24T03:58:30;16.63;;;3.87;;
75261;SDS011;63859;51.064;4.580;2022-11-24T04:00:56;21.33;;;3.40;;
75261;SDS011;63859;51.064;4.580;2022-11-24T04:03:22;25.53;;;4.70;;
75261;SDS011;63859;51.064;4.580;2022-11-24T04:05:48;24.83;;;4.23;;
75261;SDS011;63859;51.064;4.580;2022-11-24T04:08:14;16.40;;;3.50;;
75261;SDS011;63859;51.064;4.580;2022-11-24T04:10:40;19.80;;;4.03;;
75261;SDS011;63859;51.064;4.580;2022-11-24T04:13:10;13.90;;;3.60;;
75261;SDS011;63859;51.064;4.580;2022-11-24T04:15:38;12.13;;;3.10;;
75261;SDS011;63859;51.064;4.580;2022-11-24T04:18:05;16.90;;;2.87;;
75261;SDS011;63859;51.064;4.580;2022-11-24T04:20:31;16.90;;;3.20;;
75261;SDS011;63859;51.064;4.580;2022-11-24T04:22:57;13.47;;;3.30;;
75261;SDS011;63859;51.064;4.580;2022-11-24T04:25:22;8.50;;;2.60;;
75261;SDS011;63859;51.064;4.580;2022-11-24T04:27:52;19.67;;;3.20;;
75261;SDS011;63859;51.064;4.580;2022-11-24T04:30:19;8.27;;;2.13;;
75261;SDS011;63859;51.064;4.580;2022-11-24T04:32:45;12.43;;;2.37;;
75261;SDS011;63859;51.064;4.580;2022-11-24T04:35:12;12.00;;;2.87;;
75261;SDS011;63859;51.064;4.580;2022-11-24T04:37:38;9.20;;;2.13;;
75261;SDS011;63859;51.064;4.580;2022-11-24T04:40:04;7.57;;;2.23;;
75261;SDS011;63859;51.064;4.580;2022-11-24T04:42:31;8.37;;;1.80;;
75261;SDS011;63859;51.064;4.580;2022-11-24T04:44:56;8.63;;;1.63;;
75261;SDS011;63859;51.064;4.580;2022-11-24T04:47:22;8.00;;;1.70;;
75261;SDS011;63859;51.064;4.580;2022-11-24T04:49:49;8.87;;;2.37;;
75261;SDS011;63859;51.064;4.580;2022-11-24T04:52:16;9.00;;;2.00;;
75261;SDS011;63859;51.064;4.580;2022-11-24T04:54:43;6.67;;;2.00;;
75261;SDS011;63859;51.064;4.580;2022-11-24T04:57:22;6.17;;;1.53;;
75261;SDS011;63859;51.064;4.580;2022-11-24T04:59:50;5.43;;;1.43;;
75261;SDS011;63859;51.064;4.580;2022-11-24T05:02:16;4.30;;;1.50;;
75261;SDS011;63859;51.064;4.580;2022-11-24T05:04:42;8.90;;;1.80;;
75261;SDS011;63859;51.064;4.580;2022-11-24T05:07:11;6.27;;;1.63;;
75261;SDS011;63859;51.064;4.580;2022-11-24T05:09:38;5.90;;;1.73;;
75261;SDS011;63859;51.064;4.580;2022-11-24T05:12:24;6.67;;;1.70;;
75261;SDS011;63859;51.064;4.580;2022-11-24T05:14:55;5.03;;;1.50;;
75261;SDS011;63859;51.064;4.580;2022-11-24T05:17:22;3.13;;;1.53;;
75261;SDS011;63859;51.064;4.580;2022-11-24T05:19:48;4.17;;;1.70;;
75261;SDS011;63859;51.064;4.580;2022-11-24T05:22:13;9.17;;;1.67;;
75261;SDS011;63859;51.064;4.580;2022-11-24T05:24:39;5.37;;;1.90;;
75261;SDS011;63859;51.064;4.580;2022-11-24T05:27:04;3.03;;;1.37;;
75261;SDS011;63859;51.064;4.580;2022-11-24T05:29:30;3.83;;;1.50;;
75261;SDS011;63859;51.064;4.580;2022-11-24T05:31:55;5.93;;;1.77;;
75261;SDS011;63859;51.064;4.580;2022-11-24T05:34:21;7.10;;;2.17;;
75261;SDS011;63859;51.064;4.580;2022-11-24T05:36:47;7.90;;;1.80;;
75261;SDS011;63859;51.064;4.580;2022-11-24T05:39:18;6.03;;;1.40;;
75261;SDS011;63859;51.064;4.580;2022-11-24T05:41:45;4.53;;;1.63;;
75261;SDS011;63859;51.064;4.580;2022-11-24T05:44:10;7.53;;;1.80;;
75261;SDS011;63859;51.064;4.580;2022-11-24T05:46:36;6.50;;;1.93;;
75261;SDS011;63859;51.064;4.580;2022-11-24T05:49:02;9.73;;;1.93;;
75261;SDS011;63859;51.064;4.580;2022-11-24T05:51:28;7.03;;;1.70;;
75261;SDS011;63859;51.064;4.580;2022-11-24T05:53:54;5.30;;;1.77;;
75261;SDS011;63859;51.064;4.580;2022-11-24T05:56:20;5.23;;;2.00;;
75261;SDS011;63859;51.064;4.580;2022-11-24T05:58:45;3.90;;;1.87;;
75261;SDS011;63859;51.064;4.580;2022-11-24T06:01:11;11.00;;;1.77;;
75261;SDS011;63859;51.064;4.580;2022-11-24T06:03:36;9.40;;;1.97;;
75261;SDS011;63859;51.064;4.580;2022-11-24T06:06:02;10.20;;;2.47;;
75261;SDS011;63859;51.064;4.580;2022-11-24T06:08:28;9.03;;;1.77;;
75261;SDS011;63859;51.064;4.580;2022-11-24T06:10:53;5.80;;;1.60;;
75261;SDS011;63859;51.064;4.580;2022-11-24T06:13:40;8.03;;;1.70;;
75261;SDS011;63859;51.064;4.580;2022-11-24T06:16:07;8.27;;;1.60;;
75261;SDS011;63859;51.064;4.580;2022-11-24T06:18:32;7.23;;;2.00;;
75261;SDS011;63859;51.064;4.580;2022-11-24T06:21:00;11.07;;;2.80;;
75261;SDS011;63859;51.064;4.580;2022-11-24T06:23:27;10.40;;;2.07;;
75261;SDS011;63859;51.064;4.580;2022-11-24T06:25:52;8.63;;;2.30;;
75261;SDS011;63859;51.064;4.580;2022-11-24T06:28:18;5.27;;;1.77;;
75261;SDS011;63859;51.064;4.580;2022-11-24T06:30:43;12.40;;;2.43;;
75261;SDS011;63859;51.064;4.580;2022-11-24T06:33:09;9.70;;;2.17;;
75261;SDS011;63859;51.064;4.580;2022-11-24T06:35:35;13.10;;;2.40;;
75261;SDS011;63859;51.064;4.580;2022-11-24T06:38:00;10.33;;;3.03;;
75261;SDS011;63859;51.064;4.580;2022-11-24T06:40:26;11.40;;;2.30;;
75261;SDS011;63859;51.064;4.580;2022-11-24T06:42:51;16.87;;;2.60;;
75261;SDS011;63859;51.064;4.580;2022-11-24T06:45:17;11.10;;;2.50;;
75261;SDS011;63859;51.064;4.580;2022-11-24T06:47:43;14.17;;;2.50;;
75261;SDS011;63859;51.064;4.580;2022-11-24T06:50:08;8.07;;;2.00;;
75261;SDS011;63859;51.064;4.580;2022-11-24T06:52:35;14.50;;;2.20;;
75261;SDS011;63859;51.064;4.580;2022-11-24T06:55:01;12.63;;;2.73;;
75261;SDS011;63859;51.064;4.580;2022-11-24T06:57:26;8.93;;;2.23;;
75261;SDS011;63859;51.064;4.580;2022-11-24T06:59:55;15.90;;;2.67;;
75261;SDS011;63859;51.064;4.580;2022-11-24T07:02:22;15.40;;;2.63;;
75261;SDS011;63859;51.064;4.580;2022-11-24T07:04:48;11.77;;;2.67;;
75261;SDS011;63859;51.064;4.580;2022-11-24T07:07:13;13.33;;;3.20;;
75261;SDS011;63859;51.064;4.580;2022-11-24T07:09:39;12.13;;;2.70;;
75261;SDS011;63859;51.064;4.580;2022-11-24T07:12:05;21.63;;;3.60;;
75261;SDS011;63859;51.064;4.580;2022-11-24T07:14:31;13.73;;;2.90;;
75261;SDS011;63859;51.064;4.580;2022-11-24T07:16:57;19.60;;;4.13;;
75261;SDS011;63859;51.064;4.580;2022-11-24T07:19:22;14.30;;;3.03;;
75261;SDS011;63859;51.064;4.580;2022-11-24T07:21:48;17.27;;;4.30;;
75261;SDS011;63859;51.064;4.580;2022-11-24T07:24:13;16.23;;;3.60;;
75261;SDS011;63859;51.064;4.580;2022-11-24T07:26:39;14.80;;;3.40;;
75261;SDS011;63859;51.064;4.580;2022-11-24T07:29:05;11.73;;;2.87;;
75261;SDS011;63859;51.064;4.580;2022-11-24T07:31:30;17.20;;;3.53;;
75261;SDS011;63859;51.064;4.580;2022-11-24T07:33:56;16.67;;;3.60;;
75261;SDS011;63859;51.064;4.580;2022-11-24T07:36:22;13.67;;;3.50;;
75261;SDS011;63859;51.064;4.580;2022-11-24T07:38:48;17.60;;;3.40;;
75261;SDS011;63859;51.064;4.580;2022-11-24T07:41:14;13.10;;;4.20;;
75261;SDS011;63859;51.064;4.580;2022-11-24T07:43:41;14.70;;;2.90;;
75261;SDS011;63859;51.064;4.580;2022-11-24T07:46:09;14.73;;;2.93;;
75261;SDS011;63859;51.064;4.580;2022-11-24T07:48:36;13.53;;;3.07;;
75261;SDS011;63859;51.064;4.580;2022-11-24T07:51:02;16.70;;;3.10;;
75261;SDS011;63859;51.064;4.580;2022-11-24T07:53:29;13.17;;;3.07;;
75261;SDS011;63859;51.064;4.580;2022-11-24T07:55:56;16.63;;;3.10;;
75261;SDS011;63859;51.064;4.580;2022-11-24T07:58:26;20.17;;;4.20;;
75261;SDS011;63859;51.064;4.580;2022-11-24T08:00:53;16.37;;;3.30;;
75261;SDS011;63859;51.064;4.580;2022-11-24T08:03:19;18.03;;;2.90;;
75261;SDS011;63859;51.064;4.580;2022-11-24T08:05:54;13.90;;;2.97;;
75261;SDS011;63859;51.064;4.580;2022-11-24T08:08:20;15.00;;;3.00;;
75261;SDS011;63859;51.064;4.580;2022-11-24T08:10:46;12.77;;;2.90;;
75261;SDS011;63859;51.064;4.580;2022-11-24T08:13:12;17.40;;;3.20;;
75261;SDS011;63859;51.064;4.580;2022-11-24T08:15:37;13.40;;;2.70;;
75261;SDS011;63859;51.064;4.580;2022-11-24T08:18:03;18.20;;;3.03;;
75261;SDS011;63859;51.064;4.580;2022-11-24T08:20:30;12.87;;;2.90;;
75261;SDS011;63859;51.064;4.580;2022-11-24T08:22:56;17.67;;;3.33;;
75261;SDS011;63859;51.064;4.580;2022-11-24T08:25:23;9.47;;;2.60;;
75261;SDS011;63859;51.064;4.580;2022-11-24T08:27:55;10.70;;;2.67;;
75261;SDS011;63859;51.064;4.580;2022-11-24T08:30:21;14.87;;;2.60;;
75261;SDS011;63859;51.064;4.580;2022-11-24T08:32:47;16.40;;;2.57;;
75261;SDS011;63859;51.064;4.580;2022-11-24T08:35:12;17.10;;;3.43;;
75261;SDS011;63859;51.064;4.580;2022-11-24T08:37:38;10.07;;;3.00;;
75261;SDS011;63859;51.064;4.580;2022-11-24T08:40:04;16.30;;;2.60;;
75261;SDS011;63859;51.064;4.580;2022-11-24T08:42:30;8.63;;;2.80;;
75261;SDS011;63859;51.064;4.580;2022-11-24T08:44:55;12.93;;;2.30;;
75261;SDS011;63859;51.064;4.580;2022-11-24T08:47:21;11.73;;;2.63;;
75261;SDS011;63859;51.064;4.580;2022-11-24T08:49:47;10.30;;;2.73;;
75261;SDS011;63859;51.064;4.580;2022-11-24T08:52:12;8.57;;;2.40;;
75261;SDS011;63859;51.064;4.580;2022-11-24T08:54:39;11.30;;;2.70;;
75261;SDS011;63859;51.064;4.580;2022-11-24T08:57:05;12.83;;;3.03;;
75261;SDS011;63859;51.064;4.580;2022-11-24T08:59:30;18.70;;;2.87;;
75261;SDS011;63859;51.064;4.580;2022-11-24T09:01:56;15.70;;;3.23;;
75261;SDS011;63859;51.064;4.580;2022-11-24T09:04:22;10.33;;;2.77;;
75261;SDS011;63859;51.064;4.580;2022-11-24T09:06:48;164.93;;;13.10;;
75261;SDS011;63859;51.064;4.580;2022-11-24T09:09:13;12.43;;;3.23;;
75261;SDS011;63859;51.064;4.580;2022-11-24T09:11:39;11.73;;;2.93;;
75261;SDS011;63859;51.064;4.580;2022-11-24T09:14:04;13.07;;;2.90;;
75261;SDS011;63859;51.064;4.580;2022-11-24T09:16:30;16.17;;;3.73;;
75261;SDS011;63859;51.064;4.580;2022-11-24T09:18:59;13.50;;;2.73;;
75261;SDS011;63859;51.064;4.580;2022-11-24T09:21:28;16.33;;;3.10;;
75261;SDS011;63859;51.064;4.580;2022-11-24T09:23:55;12.17;;;2.40;;
75261;SDS011;63859;51.064;4.580;2022-11-24T09:28:51;17.27;;;3.03;;
75261;SDS011;63859;51.064;4.580;2022-11-24T09:31:19;15.57;;;2.67;;
75261;SDS011;63859;51.064;4.580;2022-11-24T09:33:46;39.60;;;4.07;;
75261;SDS011;63859;51.064;4.580;2022-11-24T09:36:12;16.20;;;2.87;;
75261;SDS011;63859;51.064;4.580;2022-11-24T09:38:38;12.87;;;2.83;;
75261;SDS011;63859;51.064;4.580;2022-11-24T09:43:58;14.97;;;3.07;;
75261;SDS011;63859;51.064;4.580;2022-11-24T09:52:35;15.83;;;3.10;;
75261;SDS011;63859;51.064;4.580;2022-11-24T09:58:07;12.77;;;3.13;;
75261;SDS011;63859;51.064;4.580;2022-11-24T10:00:53;19.20;;;3.73;;
75261;SDS011;63859;51.064;4.580;2022-11-24T10:03:25;18.90;;;3.77;;
75261;SDS011;63859;51.064;4.580;2022-11-24T10:05:55;17.37;;;3.10;;
75261;SDS011;63859;51.064;4.580;2022-11-24T10:08:31;14.63;;;3.23;;
75261;SDS011;63859;51.064;4.580;2022-11-24T10:11:04;13.77;;;3.47;;
75261;SDS011;63859;51.064;4.580;2022-11-24T10:29:36;16.63;;;3.57;;
75261;SDS011;63859;51.064;4.580;2022-11-24T10:32:19;15.40;;;2.80;;
75261;SDS011;63859;51.064;4.580;2022-11-24T10:34:49;22.63;;;3.00;;
75261;SDS011;63859;51.064;4.580;2022-11-24T10:37:22;17.30;;;2.70;;
75261;SDS011;63859;51.064;4.580;2022-11-24T10:43:00;18.43;;;3.10;;
75261;SDS011;63859;51.064;4.580;2022-11-24T10:45:26;27.97;;;4.70;;
75261;SDS011;63859;51.064;4.580;2022-11-24T10:47:52;15.00;;;3.43;;
75261;SDS011;63859;51.064;4.580;2022-11-24T10:50:22;9.83;;;2.40;;
75261;SDS011;63859;51.064;4.580;2022-11-24T10:52:55;14.87;;;3.20;;
75261;SDS011;63859;51.064;4.580;2022-11-24T10:55:24;24.63;;;3.20;;
75261;SDS011;63859;51.064;4.580;2022-11-24T10:57:50;23.57;;;3.70;;
75261;SDS011;63859;51.064;4.580;2022-11-24T11:02:47;16.60;;;3.67;;
75261;SDS011;63859;51.064;4.580;2022-11-24T11:10:39;24.60;;;4.13;;
75261;SDS011;63859;51.064;4.580;2022-11-24T11:13:23;22.17;;;3.10;;
75261;SDS011;63859;51.064;4.580;2022-11-24T11:15:49;14.43;;;2.70;;
75261;SDS011;63859;51.064;4.580;2022-11-24T11:18:15;27.13;;;3.60;;
75261;SDS011;63859;51.064;4.580;2022-11-24T11:20:55;26.47;;;3.73;;
75261;SDS011;63859;51.064;4.580;2022-11-24T11:23:25;18.20;;;3.90;;
75261;SDS011;63859;51.064;4.580;2022-11-24T11:28:55;20.03;;;3.50;;
75261;SDS011;63859;51.064;4.580;2022-11-24T11:31:25;19.80;;;3.60;;
75261;SDS011;63859;51.064;4.580;2022-11-24T11:33:59;25.87;;;4.07;;
75261;SDS011;63859;51.064;4.580;2022-11-24T11:36:35;17.77;;;3.87;;
75261;SDS011;63859;51.064;4.580;2022-11-24T11:39:05;14.60;;;3.40;;
75261;SDS011;63859;51.064;4.580;2022-11-24T11:41:39;22.43;;;3.93;;
75261;SDS011;63859;51.064;4.580;2022-11-24T11:44:28;13.73;;;3.40;;
75261;SDS011;63859;51.064;4.580;2022-11-24T11:47:10;24.87;;;3.10;;
75261;SDS011;63859;51.064;4.580;2022-11-24T11:49:41;16.47;;;3.13;;
75261;SDS011;63859;51.064;4.580;2022-11-24T12:00:38;20.70;;;3.53;;
75261;SDS011;63859;51.064;4.580;2022-11-24T12:06:07;19.93;;;3.53;;
75261;SDS011;63859;51.064;4.580;2022-11-24T12:17:09;24.97;;;3.80;;
75261;SDS011;63859;51.064;4.580;2022-11-24T12:27:55;20.50;;;3.37;;
75261;SDS011;63859;51.064;4.580;2022-11-24T12:30:41;24.57;;;3.10;;
75261;SDS011;63859;51.064;4.580;2022-11-24T12:36:06;15.32;;;3.10;;
75261;SDS011;63859;51.064;4.580;2022-11-24T12:39:03;28.87;;;3.93;;
75261;SDS011;63859;51.064;4.580;2022-11-24T12:44:25;12.23;;;3.27;;
75261;SDS011;63859;51.064;4.580;2022-11-24T12:47:03;15.23;;;3.93;;
75261;SDS011;63859;51.064;4.580;2022-11-24T12:52:18;13.95;;;2.70;;
75261;SDS011;63859;51.064;4.580;2022-11-24T12:54:47;17.48;;;3.40;;
75261;SDS011;63859;51.064;4.580;2022-11-24T12:57:25;18.77;;;3.10;;
75261;SDS011;63859;51.064;4.580;2022-11-24T13:00:05;22.53;;;3.97;;
75261;SDS011;63859;51.064;4.580;2022-11-24T13:08:33;29.10;;;4.20;;
75261;SDS011;63859;51.064;4.580;2022-11-24T13:19:14;16.25;;;3.35;;
75261;SDS011;63859;51.064;4.580;2022-11-24T13:26:44;23.38;;;3.38;;
75261;SDS011;63859;51.064;4.580;2022-11-24T13:37:16;15.30;;;3.37;;
75261;SDS011;63859;51.064;4.580;2022-11-24T13:39:50;18.00;;;3.17;;
75261;SDS011;63859;51.064;4.580;2022-11-24T13:42:21;20.08;;;3.33;;
75261;SDS011;63859;51.064;4.580;2022-11-24T13:44:51;25.63;;;4.25;;
75261;SDS011;63859;51.064;4.580;2022-11-24T13:52:44;16.50;;;3.42;;
75261;SDS011;63859;51.064;4.580;2022-11-24T13:57:43;18.77;;;3.58;;
75261;SDS011;63859;51.064;4.580;2022-11-24T14:02:49;20.33;;;3.33;;
75261;SDS011;63859;51.064;4.580;2022-11-24T14:05:18;14.20;;;3.13;;
75261;SDS011;63859;51.064;4.580;2022-11-24T14:07:51;21.55;;;4.00;;
75261;SDS011;63859;51.064;4.580;2022-11-24T14:10:27;19.13;;;3.80;;
75261;SDS011;63859;51.064;4.580;2022-11-24T14:13:15;21.67;;;4.20;;
75261;SDS011;63859;51.064;4.580;2022-11-24T14:18:31;19.23;;;3.40;;
75261;SDS011;63859;51.064;4.580;2022-11-24T14:20:59;19.87;;;3.50;;
75261;SDS011;63859;51.064;4.580;2022-11-24T14:23:40;24.27;;;3.78;;
75261;SDS011;63859;51.064;4.580;2022-11-24T14:26:15;25.37;;;4.73;;
75261;SDS011;63859;51.064;4.580;2022-11-24T14:29:00;16.67;;;3.20;;
75261;SDS011;63859;51.064;4.580;2022-11-24T14:31:31;25.77;;;3.97;;
75261;SDS011;63859;51.064;4.580;2022-11-24T14:34:16;12.60;;;3.13;;
75261;SDS011;63859;51.064;4.580;2022-11-24T14:36:45;22.70;;;4.37;;
75261;SDS011;63859;51.064;4.580;2022-11-24T14:39:12;24.30;;;3.90;;
75261;SDS011;63859;51.064;4.580;2022-11-24T14:41:41;19.27;;;4.00;;
75261;SDS011;63859;51.064;4.580;2022-11-24T14:44:14;21.80;;;4.13;;
75261;SDS011;63859;51.064;4.580;2022-11-24T14:46:49;21.67;;;3.60;;
75261;SDS011;63859;51.064;4.580;2022-11-24T14:49:16;28.23;;;3.97;;
75261;SDS011;63859;51.064;4.580;2022-11-24T14:51:44;16.57;;;3.33;;
75261;SDS011;63859;51.064;4.580;2022-11-24T14:54:14;21.83;;;3.70;;
75261;SDS011;63859;51.064;4.580;2022-11-24T14:56:54;29.27;;;4.70;;
75261;SDS011;63859;51.064;4.580;2022-11-24T14:59:26;23.37;;;3.87;;
75261;SDS011;63859;51.064;4.580;2022-11-24T15:01:53;33.93;;;5.57;;
75261;SDS011;63859;51.064;4.580;2022-11-24T15:06:48;18.67;;;3.93;;
75261;SDS011;63859;51.064;4.580;2022-11-24T15:11:56;22.20;;;3.50;;
75261;SDS011;63859;51.064;4.580;2022-11-24T15:14:30;19.77;;;3.90;;
75261;SDS011;63859;51.064;4.580;2022-11-24T15:17:00;18.07;;;4.17;;
75261;SDS011;63859;51.064;4.580;2022-11-24T15:19:28;36.07;;;4.77;;
75261;SDS011;63859;51.064;4.580;2022-11-24T15:21:57;20.13;;;3.93;;
75261;SDS011;63859;51.064;4.580;2022-11-24T15:24:23;14.87;;;3.60;;
75261;SDS011;63859;51.064;4.580;2022-11-24T15:26:48;27.13;;;4.17;;
75261;SDS011;63859;51.064;4.580;2022-11-24T15:29:14;22.03;;;4.37;;
75261;SDS011;63859;51.064;4.580;2022-11-24T15:31:40;22.43;;;4.53;;
75261;SDS011;63859;51.064;4.580;2022-11-24T15:34:06;22.30;;;4.27;;
75261;SDS011;63859;51.064;4.580;2022-11-24T15:36:37;22.57;;;4.30;;
75261;SDS011;63859;51.064;4.580;2022-11-24T15:39:02;27.53;;;4.10;;
75261;SDS011;63859;51.064;4.580;2022-11-24T15:41:29;18.67;;;3.90;;
75261;SDS011;63859;51.064;4.580;2022-11-24T15:43:56;15.40;;;3.63;;
75261;SDS011;63859;51.064;4.580;2022-11-24T15:46:28;18.10;;;3.73;;
75261;SDS011;63859;51.064;4.580;2022-11-24T15:48:54;22.63;;;5.07;;
75261;SDS011;63859;51.064;4.580;2022-11-24T15:51:22;15.80;;;4.23;;
75261;SDS011;63859;51.064;4.580;2022-11-24T15:53:50;19.37;;;3.90;;
75261;SDS011;63859;51.064;4.580;2022-11-24T15:56:22;29.53;;;5.37;;
75261;SDS011;63859;51.064;4.580;2022-11-24T15:58:58;24.57;;;5.30;;
75261;SDS011;63859;51.064;4.580;2022-11-24T16:01:26;25.57;;;6.07;;
75261;SDS011;63859;51.064;4.580;2022-11-24T16:03:55;21.87;;;4.57;;
75261;SDS011;63859;51.064;4.580;2022-11-24T16:06:20;19.13;;;4.43;;
75261;SDS011;63859;51.064;4.580;2022-11-24T16:08:46;23.33;;;4.57;;
75261;SDS011;63859;51.064;4.580;2022-11-24T16:11:12;13.30;;;3.70;;
75261;SDS011;63859;51.064;4.580;2022-11-24T16:13:38;26.53;;;4.53;;
75261;SDS011;63859;51.064;4.580;2022-11-24T16:16:04;32.33;;;5.33;;
75261;SDS011;63859;51.064;4.580;2022-11-24T16:18:30;23.27;;;4.63;;
75261;SDS011;63859;51.064;4.580;2022-11-24T16:20:55;27.33;;;4.80;;
75261;SDS011;63859;51.064;4.580;2022-11-24T16:23:22;16.67;;;4.17;;
75261;SDS011;63859;51.064;4.580;2022-11-24T16:25:48;18.40;;;4.47;;
75261;SDS011;63859;51.064;4.580;2022-11-24T16:28:13;26.63;;;5.57;;
75261;SDS011;63859;51.064;4.580;2022-11-24T16:30:39;30.63;;;5.33;;
75261;SDS011;63859;51.064;4.580;2022-11-24T16:33:04;19.13;;;4.10;;
75261;SDS011;63859;51.064;4.580;2022-11-24T16:35:30;19.30;;;4.63;;
75261;SDS011;63859;51.064;4.580;2022-11-24T16:37:57;20.43;;;4.30;;
75261;SDS011;63859;51.064;4.580;2022-11-24T16:40:22;16.77;;;4.30;;
75261;SDS011;63859;51.064;4.580;2022-11-24T16:42:48;17.20;;;3.77;;
75261;SDS011;63859;51.064;4.580;2022-11-24T16:45:14;17.27;;;4.03;;
75261;SDS011;63859;51.064;4.580;2022-11-24T16:47:39;22.47;;;4.47;;
75261;SDS011;63859;51.064;4.580;2022-11-24T16:50:07;22.73;;;4.33;;
75261;SDS011;63859;51.064;4.580;2022-11-24T16:52:35;22.17;;;4.03;;
75261;SDS011;63859;51.064;4.580;2022-11-24T16:55:02;21.20;;;4.10;;
75261;SDS011;63859;51.064;4.580;2022-11-24T16:57:28;28.70;;;4.90;;